• Join FlightAware (Why Join?)
  • Login
  • US Flag 
02:53AM EDT


 

Airport Tracker/Info


-or-


 

Live Flight TrackerFlight Track Log ✈ XOJ549 ✈ 01-Jul-2013 ✈ MYNN / NAS - KJFK

Flight Track Log - Related Links

Times and Time Zones

All times are in EDT time to prevent confusion due to time zone crossing. See the XOJ549 flight status page for this flight to view local times or setup timezone preferences in your user account.

Time Position Orientation Groundspeed Altitude Reporting Facility
EDT Latitude Longitude Course Direction KTS MPH feet Rate Location/Type
08:41AM 25.0278 -77.4506 24° Northeast 457 526 1,300  Level Miami Center
08:42AM 25.0031 -77.4136 126° Southeast 308 354 4,700 3,300 Climbing Miami Center
08:43AM 25.0303 -77.3589 61° Northeast 205 236 7,900 2,880 Climbing Miami Center
08:44AM 25.0869 -77.3269 27° Northeast 181 208 10,500 2,580 Climbing Miami Center
08:45AM 25.1683 -77.3250 North 204 235 13,100 2,880 Climbing Miami Center
08:46AM 25.7085 -77.0875 24° Northeast  Level FlightAware Approximate
08:46AM 25.2583 -77.3183 North 269 310 16,300  Level Miami Center
08:47AM 25.3461 -77.2819 21° North 304 350 18,700 2,340 Climbing Miami Center
08:48AM 25.4381 -77.2383 23° Northeast 333 383 21,000 2,100 Climbing Miami Center
08:49AM 25.5364 -77.2411 359° North 345 397 23,000 960 Climbing Miami Center
08:50AM 25.6281 -77.3197 322° Northwest 355 409 23,000 1,260 Level Miami Center
08:51AM 25.7197 -77.4100 318° Northwest 399 459 25,600 2,580 Climbing Miami Center
08:52AM 25.8156 -77.5050 318° Northwest 415 478 28,200 2,100 Climbing Miami Center
08:53AM 25.9028 -77.5911 318° Northwest 415 478 29,900 1,500 Climbing Miami Center
08:54AM 25.9881 -77.6747 319° Northwest 415 478 31,300 1,380 Climbing Miami Center
08:55AM 26.0775 -77.7611 319° Northwest 420 483 32,700 1,200 Climbing Miami Center
08:56AM 26.1667 -77.8567 316° Northwest 425 489 33,700 1,080 Climbing Miami Center
08:57AM 26.2600 -77.9478 319° Northwest 431 496 34,900 1,200 Climbing Miami Center
08:58AM 26.3514 -78.0436 317° Northwest 437 503 36,200 1,200 Climbing Miami Center
08:59AM 26.4425 -78.1306 319° Northwest 442 509 37,300 960 Climbing Miami Center
09:00AM 26.5336 -78.2267 317° Northwest 442 509 38,200 900 Climbing Miami Center
09:01AM 26.6164 -78.3042 320° Northwest 437 503 39,100 900 Climbing Miami Center
09:02AM 26.7094 -78.3961 319° Northwest 439 505 40,000 420 Climbing Miami Center
09:03AM 26.8003 -78.4881 318° Northwest 444 511 40,000  Level Miami Center
09:04AM 26.8931 -78.5872 316° Northwest 444 511 40,000 360 Level Miami Center
09:05AM 26.9983 -78.6889 319° Northwest 444 511 40,800 480 Climbing Miami Center
09:06AM 27.0872 -78.7814 317° Northwest 444 511 41,000 60 Climbing Miami Center
09:07AM 27.1675 -78.8644 317° Northwest 439 505 41,000  Level Miami Center
09:08AM 27.2683 -78.9692 317° Northwest 439 505 41,000  Level Miami Center
09:09AM 27.3608 -79.0619 318° Northwest 439 505 41,000  Level Miami Center
09:10AM 27.4514 -79.1550 318° Northwest 439 505 41,000  Level Miami Center
09:11AM 27.5336 -79.2386 318° Northwest 439 505 41,000  Level Miami Center
09:12AM 27.6239 -79.3342 317° Northwest 439 505 41,000  Level Miami Center
09:13AM 27.7283 -79.4397 318° Northwest 439 505 41,000  Level Miami Center
09:14AM 27.8186 -79.5356 317° Northwest 445 512 41,000  Level Miami Center
09:15AM 27.8983 -79.6222 316° Northwest 445 512 41,000  Level Miami Center
09:16AM 27.9906 -79.7161 318° Northwest 445 512 41,000  Level Miami Center
09:17AM 28.0844 -79.8125 318° Northwest 445 512 41,000  Level Miami Center
09:18AM 28.1867 -79.9189 317° Northwest 450 518 41,000  Level Miami Center
09:19AM 28.2783 -80.0156 317° Northwest 450 518 41,000  Level Miami Center
09:20AM 28.3600 -80.1028 317° Northwest 455 524 41,000  Level Miami Center
09:22AM 28.5625 -80.3211 317° Northwest 457 526 41,000 180 Level Jacksonville Center
09:23AM 28.6667 -80.4272 318° Northwest 457 526 41,600 600 Climbing Jacksonville Center
09:24AM 28.7561 -80.5219 317° Northwest 452 520 42,300 600 Climbing Jacksonville Center
09:25AM 28.8433 -80.6147 317° Northwest 447 514 42,800 300 Climbing Jacksonville Center
09:26AM 28.9328 -80.7122 316° Northwest 436 502 43,000 60 Climbing Jacksonville Center
09:27AM 29.0219 -80.8100 316° Northwest 436 502 43,000  Level Jacksonville Center
09:28AM 29.1133 -80.9056 318° Northwest 436 502 43,000  Level Jacksonville Center
09:29AM 29.2025 -81.0061 315° West 441 507 43,000  Level Jacksonville Center
09:30AM 29.3119 -81.0731 332° Northwest 446 513 43,000  Level Jacksonville Center
09:31AM 29.4397 -81.0922 353° North 459 528 43,000  Level Jacksonville Center
09:32AM 29.5567 -81.0997 357° North 464 534 43,000  Level Jacksonville Center
09:33AM 29.6881 -81.1019 359° North 464 534 43,000  Level Jacksonville Center
09:34AM 29.8197 -81.1067 358° North 464 534 43,000  Level Jacksonville Center
09:35AM 29.9533 -81.1114 358° North 464 534 43,000  Level Jacksonville Center
09:36AM 30.0850 -81.1161 358° North 469 540 43,000  Level Jacksonville Center
09:37AM 30.2186 -81.1208 358° North 469 540 43,000  Level Jacksonville Center
09:38AM 30.3544 -81.1256 358° North 480 552 43,000  Level Jacksonville Center
09:39AM 30.4881 -81.1303 358° North 480 552 43,000  Level Jacksonville Center
09:40AM 30.6219 -81.1353 358° North 480 552 43,000  Level Jacksonville Center
09:41AM 30.7578 -81.1425 357° North 480 552 43,000  Level Jacksonville Center
09:42AM 30.8914 -81.1494 357° North 480 552 43,000  Level Jacksonville Center
09:43AM 31.0250 -81.1567 357° North 480 552 43,000  Level Jacksonville Center
09:44AM 31.1608 -81.1592 359° North 480 552 43,000  Level Jacksonville Center
09:45AM 31.2964 -81.1542 North 480 552 43,000  Level Jacksonville Center
09:46AM 31.4186 -81.0789 28° Northeast 485 558 43,000  Level Jacksonville Center
09:47AM 31.5508 -80.9861 31° Northeast 496 571 43,000  Level Jacksonville Center
09:48AM 31.6708 -80.9031 30° Northeast 502 578 43,000  Level Jacksonville Center
09:49AM 31.7925 -80.8197 30° Northeast 502 578 43,000  Level Jacksonville Center
09:50AM 31.9122 -80.7364 31° Northeast 508 585 43,000  Level Jacksonville Center
09:51AM 32.0194 -80.6628 30° Northeast 503 579 43,000  Level Jacksonville Center
09:52AM 32.1392 -80.5789 31° Northeast 503 579 43,000  Level Jacksonville Center
09:53AM 32.2689 -80.4872 31° Northeast 496 571 43,000  Level Jacksonville Center
09:54AM 32.3864 -80.4006 32° Northeast 501 577 43,000  Level Jacksonville Center
09:55AM 32.5078 -80.3158 30° Northeast 501 577 43,000  Level Jacksonville Center
09:56AM 32.6250 -80.2311 31° Northeast 501 577 43,000  Level Jacksonville Center
09:57AM 32.7442 -80.1461 31° Northeast 501 577 43,000  Level Jacksonville Center
09:58AM 32.8611 -80.0561 33° Northeast 501 577 43,000  Level Jacksonville Center
09:59AM 32.9822 -79.9631 33° Northeast 501 577 43,000  Level Jacksonville Center
10:00AM 33.0989 -79.8675 34° Northeast 506 582 43,000  Level Jacksonville Center
10:01AM 33.2136 -79.7742 34° Northeast 501 577 43,000 120 Level Jacksonville Center
10:02AM 33.3153 -79.6689 41° Northeast 491 565 43,300 360 Climbing Jacksonville Center
10:03AM 33.4211 -79.5656 39° Northeast 486 559 43,800 480 Climbing Jacksonville Center
10:04AM 33.5247 -79.4594 40° Northeast 486 559 44,300 480 Climbing Jacksonville Center
10:05AM 33.6242 -79.3558 41° Northeast 481 554 44,800 300 Climbing Jacksonville Center
10:06AM 33.7214 -79.2569 40° Northeast 481 554 45,000 60 Climbing Jacksonville Center
10:07AM 33.8206 -79.1528 41° Northeast 472 543 45,000  Level Jacksonville Center
10:08AM 33.9239 -79.0483 40° Northeast 467 537 45,000  Level Jacksonville Center
10:09AM 34.0956 -78.8719 40° Northeast 489 563 45,000  Level Washington Center
10:10AM 34.1964 -78.7656 41° Northeast 489 563 45,000  Level Washington Center
10:11AM 34.2994 -78.6614 40° Northeast 484 557 45,000  Level Washington Center
10:12AM 34.4064 -78.5547 39° Northeast 484 557 45,000  Level Washington Center
10:13AM 34.5111 -78.4500 39° Northeast 490 564 45,000  Level Washington Center
10:14AM 34.6139 -78.3428 41° Northeast 490 564 45,000  Level Washington Center
10:15AM 34.7183 -78.2400 39° Northeast 490 564 45,000  Level Washington Center
10:16AM 34.7994 -78.1567 40° Northeast 485 558 45,000  Level Washington Center
10:17AM 34.9106 -78.0361 42° Northeast 485 558 45,000  Level Washington Center
10:18AM 35.0128 -77.9303 40° Northeast 479 551 45,000  Level Washington Center
10:19AM 35.1128 -77.8239 41° Northeast 479 551 45,000  Level Washington Center
10:20AM 35.2150 -77.7175 40° Northeast 479 551 45,000  Level Washington Center
10:21AM 35.3169 -77.6131 40° Northeast 479 551 45,000  Level Washington Center
10:22AM 35.4208 -77.5114 39° Northeast 479 551 45,000  Level Washington Center
10:23AM 35.5328 -77.4169 34° Northeast 479 551 45,000  Level Washington Center
10:24AM 35.6408 -77.3197 36° Northeast 479 551 45,000  Level Washington Center
10:25AM 35.7525 -77.2275 34° Northeast 484 557 45,000  Level Washington Center
10:26AM 35.8644 -77.1247 37° Northeast 471 542 45,000  Level Washington Center
10:27AM 35.9783 -77.0269 35° Northeast 471 542 45,000  Level Washington Center
10:28AM 36.0900 -76.9414 32° Northeast 476 548 45,000  Level Washington Center
10:29AM 36.2100 -76.8558 30° Northeast 481 554 45,000  Level Washington Center
10:30AM 36.3275 -76.7728 30° Northeast 481 554 45,000  Level Washington Center
10:32AM 36.5608 -76.6006 31° Northeast 486 559 45,000  Level Washington Center
10:33AM 36.6761 -76.5164 30° Northeast 486 559 45,000  Level Washington Center
10:34AM 36.7789 -76.4347 32° Northeast 494 568 45,000  Level Washington Center
10:35AM 36.8964 -76.3450 31° Northeast 489 563 45,000  Level Washington Center
10:37AM 37.0094 -76.2601 31° Northeast  Level FlightAware Approximate
10:37AM 37.1414 -76.1625 31° Northeast 490 564 45,000  Level Washington Center
10:38AM 37.2503 -76.0875 29° Northeast 490 564 45,000  Level Washington Center
10:39AM 37.3675 -75.9994 31° Northeast 490 564 45,000  Level Washington Center
10:40AM 37.4825 -75.9111 31° Northeast 490 564 45,000  Level Washington Center
10:42AM 37.7142 -75.7336 31° Northeast 490 564 45,000  Level Washington Center
10:43AM 37.8311 -75.6444 31° Northeast 490 564 45,000  Level Washington Center
10:44AM 37.9500 -75.5550 31° Northeast 490 564 45,000  Level Washington Center
10:45AM 38.0667 -75.4653 31° Northeast 490 564 45,000  Level Washington Center
10:46AM 38.1897 -75.3856 27° Northeast 490 564 45,000 -480 Level Washington Center
10:47AM 38.3125 -75.3086 26° Northeast 485 558 44,100 -1,260 Descending Washington Center
10:48AM 38.4331 -75.2233 29° Northeast 485 558 42,600 -1,380 Descending Washington Center
10:49AM 38.5706 -75.1350 27° Northeast 495 570 41,400 -1,680 Descending Washington Center
10:50AM 38.6911 -75.0756 21° North 495 570 39,300 -1,980 Descending Washington Center
10:51AM 38.8117 -74.9817 31° Northeast 495 570 37,500 -1,800 Descending Washington Center
10:52AM 38.9194 -74.8739 38° Northeast 495 570 35,800 -2,340 Descending Washington Center
10:53AM 39.0292 -74.7525 41° Northeast 507 583 33,000 -3,180 Descending Washington Center
10:54AM 39.1406 -74.6067 45° Northeast 512 589 29,400 -3,120 Descending Washington Center
10:56AM 39.3117 -74.3933 44° Northeast 513 590 24,500 -2,880 Descending New York Center
10:57AM 39.4283 -74.3239 25° Northeast 474 545 21,600 -2,640 Descending New York Center
10:58AM 39.5186 -74.2397 36° Northeast 452 520 19,300 -1,800 Descending New York Center
10:59AM 39.6250 -74.1614 30° Northeast 439 505 18,000 -720 Descending New York Center
11:00AM 39.7381 -74.0750 30° Northeast 433 498 17,900 -1,620 Descending New York Center
11:02AM 39.9358 -73.9275 30° Northeast 418 481 13,300 -2,280 Descending New York Center
11:03AM 40.0186 -73.8744 26° Northeast 381 438 11,200 -1,680 Descending New York Center
11:04AM 40.1078 -73.8186 26° Northeast 331 381 10,000 -1,560 Descending New York Center
11:05AM 40.1667 -73.7833 25° Northeast 323 372 8,600 -1,920 Descending New York TRACON
11:06AM 40.2500 -73.7167 31° Northeast 321 369 6,700 -1,800 Descending New York TRACON
11:07AM 40.3167 -73.6667 30° Northeast 309 356 5,000 -1,380 Descending New York TRACON
11:08AM 40.4000 -73.6167 25° Northeast 297 342 4,000 -540 Descending New York TRACON
11:09AM 40.4667 -73.5500 37° Northeast 299 344 4,000  Level New York TRACON
11:10AM 40.5333 -73.4833 37° Northeast 299 344 4,000  Level New York TRACON
11:11AM 40.6167 -73.4500 17° North 301 346 4,000  Level New York TRACON
11:12AM 40.6833 -73.4500 360° North 270 311 4,000 -60 Level New York TRACON
11:13AM 40.7500 -73.4833 339° North 231 266 3,900 -540 Descending New York TRACON
11:14AM 40.7833 -73.5500 303° West 218 251 3,000 -480 Descending New York TRACON
11:15AM 40.8000 -73.6167 288° West 173 199 3,000  Level New York TRACON
11:16AM 40.7833 -73.6667 246° West 184 212 3,100 -360 Climbing New York TRACON
11:17AM 40.7333 -73.7000 207° Southwest 162 186 2,300 -840 Descending New York TRACON
11:18AM 40.7000 -73.7333 217° Southwest 142 163 1,500 -840 Descending New York TRACON
11:19AM 40.6667 -73.7500 201° Southwest 133 153 700 -840 Descending New York TRACON
11:21AM 40.6398 -73.7789 219° Southwest  Level Estimated
11:28AM 40.6398 -73.7789 72° East  Level Estimated
11:29AM 40.6398 -73.7789 72° East  Level Estimated
11:30AM 40.6398 -73.7789 72° East  Level Estimated